createdAt,value
2022-11-27T00:00:36.062Z,7.10
2022-11-27T00:01:36.056Z,7.60
2022-11-27T00:02:40.399Z,7.80
2022-11-27T00:03:36.188Z,6.80
2022-11-27T00:04:35.997Z,7.50
2022-11-27T00:05:35.989Z,6.90
2022-11-27T00:06:36.002Z,6.90
2022-11-27T00:07:36.066Z,7.30
2022-11-27T00:08:35.951Z,6.90
2022-11-27T00:09:35.953Z,7.10
2022-11-27T00:10:35.949Z,7.00
2022-11-27T00:11:35.962Z,7.10
2022-11-27T00:12:35.915Z,8.20
2022-11-27T00:13:35.934Z,7.20
2022-11-27T00:14:35.899Z,7.60
2022-11-27T00:15:35.911Z,8.20
2022-11-27T00:16:35.885Z,7.60
2022-11-27T00:17:35.861Z,7.20
2022-11-27T00:18:35.844Z,6.20
2022-11-27T00:19:35.840Z,6.90
2022-11-27T00:20:35.829Z,6.50
2022-11-27T00:21:35.839Z,7.80
2022-11-27T00:22:35.803Z,6.70
2022-11-27T00:23:35.783Z,7.00
2022-11-27T00:24:35.780Z,6.00
2022-11-27T00:25:35.782Z,6.30
2022-11-27T00:26:38.032Z,6.70
2022-11-27T00:27:35.751Z,6.40
2022-11-27T00:28:35.735Z,6.90
2022-11-27T00:29:35.744Z,6.70
2022-11-27T00:30:35.729Z,6.30
2022-11-27T00:31:35.838Z,6.80
2022-11-27T00:32:35.683Z,6.90
2022-11-27T00:33:35.693Z,6.90
2022-11-27T00:34:35.666Z,7.00
2022-11-27T00:35:35.671Z,6.70
2022-11-27T00:36:35.634Z,6.70
2022-11-27T00:37:35.688Z,6.90
2022-11-27T00:38:38.759Z,5.90
2022-11-27T00:39:35.615Z,5.80
2022-11-27T00:40:35.628Z,6.90
2022-11-27T00:41:35.625Z,5.70
2022-11-27T00:42:35.604Z,6.40
2022-11-27T00:43:43.710Z,6.80
2022-11-27T00:44:35.587Z,6.60
2022-11-27T00:45:35.560Z,6.10
2022-11-27T00:46:35.617Z,5.80
2022-11-27T00:47:36.090Z,5.60
2022-11-27T00:48:35.540Z,6.30
2022-11-27T00:49:35.565Z,6.20
2022-11-27T00:50:35.503Z,6.10
2022-11-27T00:51:35.496Z,6.30
2022-11-27T00:52:35.486Z,7.10
2022-11-27T00:53:35.495Z,5.60
2022-11-27T00:54:35.451Z,6.20
2022-11-27T00:55:35.448Z,6.10
2022-11-27T00:56:35.485Z,6.50
2022-11-27T00:57:36.094Z,5.90
2022-11-27T00:58:35.409Z,6.30
2022-11-27T00:59:35.420Z,5.90
2022-11-27T01:00:35.392Z,6.00
2022-11-27T01:01:35.473Z,5.60
2022-11-27T01:02:35.456Z,6.40
2022-11-27T01:03:35.383Z,5.40
2022-11-27T01:04:35.351Z,6.10
2022-11-27T01:05:35.340Z,5.50
2022-11-27T01:06:35.331Z,5.90
2022-11-27T01:07:35.737Z,6.00
2022-11-27T01:08:35.311Z,6.20
2022-11-27T01:09:35.294Z,5.50
2022-11-27T01:10:35.276Z,5.70
2022-11-27T01:11:35.282Z,6.00
2022-11-27T01:12:35.289Z,5.70
2022-11-27T01:13:35.269Z,6.40
2022-11-27T01:14:35.246Z,5.10
2022-11-27T01:15:35.288Z,6.10
2022-11-27T01:16:35.330Z,5.80
2022-11-27T01:17:35.228Z,5.90
2022-11-27T01:18:35.215Z,6.50
2022-11-27T01:19:35.181Z,5.70
2022-11-27T01:20:35.170Z,5.50
2022-11-27T01:21:35.154Z,6.10
2022-11-27T01:22:35.170Z,5.90
2022-11-27T01:23:35.151Z,5.20
2022-11-27T01:24:35.129Z,6.20
2022-11-27T01:25:35.118Z,5.80
2022-11-27T01:26:35.128Z,5.60
2022-11-27T01:27:35.123Z,5.70
2022-11-27T01:28:35.089Z,5.70
2022-11-27T01:29:35.078Z,6.00
2022-11-27T01:30:35.070Z,5.70
2022-11-27T01:31:35.130Z,5.90
2022-11-27T01:32:35.053Z,5.60
2022-11-27T01:33:35.028Z,5.70
2022-11-27T01:34:35.047Z,5.00
2022-11-27T01:35:35.020Z,5.40
2022-11-27T01:36:35.003Z,5.70
2022-11-27T01:37:35.004Z,5.60
2022-11-27T01:38:34.973Z,5.10
2022-11-27T01:39:34.985Z,5.00
2022-11-27T01:40:34.945Z,5.30
2022-11-27T01:41:34.948Z,5.70
2022-11-27T01:42:34.943Z,6.00
2022-11-27T01:43:34.915Z,5.80
2022-11-27T01:44:34.930Z,5.30
2022-11-27T01:45:34.909Z,5.70
2022-11-27T01:46:34.957Z,5.00
2022-11-27T01:47:34.899Z,4.60
2022-11-27T01:48:34.874Z,5.40
2022-11-27T01:49:34.853Z,5.50
2022-11-27T01:50:34.836Z,5.30
2022-11-27T01:51:34.839Z,5.60
2022-11-27T01:52:34.836Z,5.00
2022-11-27T01:53:34.803Z,5.30
2022-11-27T01:54:34.800Z,4.90
2022-11-27T01:55:34.800Z,4.90
2022-11-27T01:56:34.775Z,5.20
2022-11-27T01:57:34.802Z,4.70
2022-11-27T01:58:34.753Z,5.10
2022-11-27T01:59:34.742Z,5.10
2022-11-27T02:00:34.737Z,5.20
2022-11-27T02:01:34.794Z,5.10
2022-11-27T02:02:34.819Z,5.20
2022-11-27T02:03:34.706Z,5.00
2022-11-27T02:04:34.702Z,5.70
2022-11-27T02:05:34.711Z,5.20
2022-11-27T02:06:34.681Z,4.90
2022-11-27T02:07:34.738Z,4.90
2022-11-27T02:08:34.645Z,5.50
2022-11-27T02:09:34.645Z,5.90
2022-11-27T02:10:34.627Z,5.30
2022-11-27T02:11:34.612Z,5.60
2022-11-27T02:12:34.627Z,5.30
2022-11-27T02:13:34.599Z,5.70
2022-11-27T02:14:34.611Z,5.50
2022-11-27T02:15:34.580Z,5.00
2022-11-27T02:16:34.596Z,5.40
2022-11-27T02:17:34.586Z,4.60
2022-11-27T02:18:34.542Z,4.50
2022-11-27T02:19:34.537Z,5.30
2022-11-27T02:20:34.509Z,5.60
2022-11-27T02:21:34.520Z,5.20
2022-11-27T02:22:34.520Z,5.30
2022-11-27T02:23:34.479Z,4.50
2022-11-27T02:24:34.472Z,5.20
2022-11-27T02:25:34.474Z,5.30
2022-11-27T02:26:34.449Z,4.90
2022-11-27T02:27:34.454Z,4.60
2022-11-27T02:28:34.429Z,4.90
2022-11-27T02:29:34.420Z,4.80
2022-11-27T02:30:34.418Z,4.80
2022-11-27T02:31:34.479Z,4.90
2022-11-27T02:32:34.402Z,5.10
2022-11-27T02:33:34.373Z,5.10
2022-11-27T02:34:34.370Z,5.20
2022-11-27T02:35:34.350Z,5.40
2022-11-27T02:36:34.350Z,4.70
2022-11-27T02:37:34.347Z,5.50
2022-11-27T02:38:34.332Z,5.40
2022-11-27T02:39:34.313Z,5.20
2022-11-27T02:40:34.304Z,5.10
2022-11-27T02:41:34.289Z,5.30
2022-11-27T02:42:34.305Z,5.40
2022-11-27T02:43:34.323Z,4.90
2022-11-27T02:44:34.257Z,4.90
2022-11-27T02:45:34.241Z,5.20
2022-11-27T02:46:34.290Z,5.50
2022-11-27T02:47:34.252Z,5.10
2022-11-27T02:48:34.212Z,5.80
2022-11-27T02:49:35.005Z,5.50
2022-11-27T02:50:34.190Z,5.30
2022-11-27T02:51:34.190Z,5.60
2022-11-27T02:52:34.194Z,5.10
2022-11-27T02:53:34.169Z,6.10
2022-11-27T02:54:34.162Z,5.70
2022-11-27T02:55:34.135Z,5.80
2022-11-27T02:56:34.128Z,5.10
2022-11-27T02:57:34.186Z,5.10
2022-11-27T02:58:34.096Z,5.50
2022-11-27T02:59:34.102Z,5.00
2022-11-27T03:00:34.095Z,5.10
2022-11-27T03:01:34.100Z,5.30
2022-11-27T03:02:34.233Z,5.60
2022-11-27T03:03:34.044Z,6.00
2022-11-27T03:04:34.044Z,5.00
2022-11-27T03:05:34.043Z,5.30
2022-11-27T03:06:34.016Z,5.10
2022-11-27T03:07:34.078Z,5.20
2022-11-27T03:08:34.009Z,5.20
2022-11-27T03:09:33.985Z,5.10
2022-11-27T03:10:33.976Z,5.60
2022-11-27T03:11:33.967Z,5.50
2022-11-27T03:12:33.973Z,5.30
2022-11-27T03:13:33.951Z,5.60
2022-11-27T03:14:33.932Z,5.80
2022-11-27T03:15:33.915Z,5.10
2022-11-27T03:16:33.987Z,5.80
2022-11-27T03:17:33.913Z,6.10
2022-11-27T03:18:33.891Z,5.20
2022-11-27T03:19:33.895Z,5.40
2022-11-27T03:20:33.860Z,5.70
2022-11-27T03:21:33.848Z,6.20
2022-11-27T03:22:33.844Z,6.10
2022-11-27T03:23:33.856Z,5.60
2022-11-27T03:24:33.818Z,6.90
2022-11-27T03:25:33.815Z,6.00
2022-11-27T03:26:33.811Z,6.10
2022-11-27T03:27:33.817Z,6.20
2022-11-27T03:28:33.789Z,6.80
2022-11-27T03:29:33.778Z,6.00
2022-11-27T03:30:33.750Z,5.90
2022-11-27T03:31:33.875Z,6.20
2022-11-27T03:32:33.769Z,6.30
2022-11-27T03:33:34.325Z,5.70
2022-11-27T03:34:33.716Z,6.00
2022-11-27T03:35:33.712Z,5.90
2022-11-27T03:36:33.698Z,6.90
2022-11-27T03:37:33.683Z,6.10
2022-11-27T03:38:33.684Z,6.70
2022-11-27T03:39:33.653Z,6.50
2022-11-27T03:40:33.643Z,6.10
2022-11-27T03:41:33.656Z,6.80
2022-11-27T03:42:33.629Z,6.90
2022-11-27T03:43:33.660Z,7.40
2022-11-27T03:44:33.603Z,6.60
2022-11-27T03:45:33.588Z,6.60
2022-11-27T03:46:33.644Z,6.90
2022-11-27T03:47:33.634Z,6.80
2022-11-27T03:48:33.586Z,7.00
2022-11-27T03:49:33.552Z,6.40
2022-11-27T03:50:33.551Z,6.50
2022-11-27T03:51:33.540Z,6.90
2022-11-27T03:52:33.527Z,6.20
2022-11-27T03:53:33.532Z,5.90
2022-11-27T03:54:33.489Z,6.40
2022-11-27T03:55:33.494Z,6.40
2022-11-27T03:56:33.470Z,7.00
2022-11-27T03:57:33.466Z,6.40
2022-11-27T03:58:33.478Z,6.10
2022-11-27T03:59:33.455Z,7.00
2022-11-27T04:00:33.451Z,6.50
2022-11-27T04:01:33.487Z,6.60
2022-11-27T04:02:33.407Z,6.60
2022-11-27T04:03:33.447Z,6.30
2022-11-27T04:04:33.420Z,6.70
2022-11-27T04:05:33.385Z,7.30
2022-11-27T04:06:33.381Z,6.80
2022-11-27T04:07:33.424Z,7.50
2022-11-27T04:08:33.359Z,7.00
2022-11-27T04:09:33.335Z,7.10
2022-11-27T04:10:33.319Z,7.90
2022-11-27T04:11:33.329Z,7.20
2022-11-27T04:12:33.311Z,6.50
2022-11-27T04:13:33.305Z,7.00
2022-11-27T04:14:33.273Z,6.60
2022-11-27T04:15:33.273Z,6.20
2022-11-27T04:16:33.297Z,7.40
2022-11-27T04:17:33.245Z,7.60
2022-11-27T04:18:33.278Z,7.00
2022-11-27T04:19:33.224Z,7.00
2022-11-27T04:20:33.212Z,7.40
2022-11-27T04:21:33.207Z,9.00
2022-11-27T04:22:33.189Z,8.70
2022-11-27T04:23:33.201Z,10.00
2022-11-27T04:24:33.170Z,9.40
2022-11-27T04:25:33.162Z,9.00
2022-11-27T04:26:33.153Z,8.60
2022-11-27T04:27:33.168Z,8.90
2022-11-27T04:28:33.149Z,10.50
2022-11-27T04:29:33.143Z,8.90
2022-11-27T04:30:33.110Z,8.80
2022-11-27T04:31:33.152Z,8.80
2022-11-27T04:32:33.079Z,8.90
2022-11-27T04:33:33.110Z,8.40
2022-11-27T04:34:33.092Z,8.10
2022-11-27T04:35:33.059Z,8.90
2022-11-27T04:36:38.829Z,8.80
2022-11-27T04:37:33.031Z,8.40
2022-11-27T04:38:33.043Z,8.90
2022-11-27T04:39:33.017Z,8.20
2022-11-27T04:40:32.992Z,8.70
2022-11-27T04:41:32.983Z,8.60
2022-11-27T04:42:32.988Z,9.30
2022-11-27T04:43:32.995Z,9.10
2022-11-27T04:44:32.945Z,9.00
2022-11-27T04:45:32.945Z,9.70
2022-11-27T04:46:33.051Z,8.80
2022-11-27T04:47:32.931Z,8.30
2022-11-27T04:48:32.928Z,8.90
2022-11-27T04:49:32.903Z,8.70
2022-11-27T04:50:32.900Z,9.00
2022-11-27T04:51:32.899Z,8.60
2022-11-27T04:52:32.870Z,8.40
2022-11-27T04:53:32.874Z,8.20
2022-11-27T04:54:32.850Z,9.00
2022-11-27T04:55:32.838Z,8.30
2022-11-27T04:56:32.821Z,8.60
2022-11-27T04:57:32.808Z,9.20
2022-11-27T04:58:32.825Z,9.10
2022-11-27T04:59:32.782Z,8.70
2022-11-27T05:00:32.882Z,8.70
2022-11-27T05:01:32.770Z,9.20
2022-11-27T05:02:32.809Z,9.20
2022-11-27T05:03:32.761Z,8.50
2022-11-27T05:04:32.735Z,8.60
2022-11-27T05:05:32.720Z,8.70
2022-11-27T05:06:32.719Z,9.10
2022-11-27T05:07:32.792Z,9.00
2022-11-27T05:08:32.709Z,8.60
2022-11-27T05:09:32.683Z,9.10
2022-11-27T05:10:32.681Z,9.20
2022-11-27T05:11:32.658Z,9.20
2022-11-27T05:12:32.666Z,9.30
2022-11-27T05:13:32.653Z,8.30
2022-11-27T05:14:32.633Z,8.10
2022-11-27T05:15:32.621Z,8.90
2022-11-27T05:16:32.713Z,8.90
2022-11-27T05:17:32.633Z,8.90
2022-11-27T05:18:32.656Z,8.50
2022-11-27T05:19:32.592Z,9.30
2022-11-27T05:20:32.579Z,8.80
2022-11-27T05:21:32.561Z,8.20
2022-11-27T05:22:32.545Z,8.90
2022-11-27T05:23:32.572Z,8.50
2022-11-27T05:24:32.534Z,9.40
2022-11-27T05:25:32.540Z,9.70
2022-11-27T05:26:32.513Z,10.10
2022-11-27T05:27:32.499Z,10.00
2022-11-27T05:28:32.493Z,9.90
2022-11-27T05:29:32.474Z,10.30
2022-11-27T05:30:32.446Z,9.60
2022-11-27T05:31:32.461Z,10.10
2022-11-27T05:32:32.443Z,9.70
2022-11-27T05:33:32.433Z,9.60
2022-11-27T05:34:32.410Z,9.50
2022-11-27T05:35:32.404Z,10.20
2022-11-27T05:36:32.397Z,9.20
2022-11-27T05:37:32.399Z,10.40
2022-11-27T05:38:32.398Z,10.70
2022-11-27T05:39:32.351Z,10.20
2022-11-27T05:40:32.362Z,10.70
2022-11-27T05:41:32.342Z,9.70
2022-11-27T05:42:32.328Z,11.00
2022-11-27T05:43:32.330Z,11.00
2022-11-27T05:44:32.309Z,11.80
2022-11-27T05:45:32.300Z,10.60
2022-11-27T05:46:32.341Z,11.80
2022-11-27T05:47:32.302Z,10.80
2022-11-27T05:48:32.279Z,11.00
2022-11-27T05:49:32.240Z,10.90
2022-11-27T05:50:32.232Z,10.90
2022-11-27T05:51:32.232Z,11.80
2022-11-27T05:52:32.226Z,11.30
2022-11-27T05:53:32.216Z,11.10
2022-11-27T05:54:32.194Z,12.30
2022-11-27T05:55:32.182Z,11.80
2022-11-27T05:56:32.174Z,11.80
2022-11-27T05:57:32.162Z,11.70
2022-11-27T05:58:32.172Z,11.70
2022-11-27T05:59:32.142Z,12.10
2022-11-27T06:00:32.121Z,12.40
2022-11-27T06:01:32.147Z,11.90
2022-11-27T06:02:32.241Z,12.60
2022-11-27T06:03:32.174Z,11.30
2022-11-27T06:04:32.081Z,11.60
2022-11-27T06:05:32.079Z,11.90
2022-11-27T06:06:32.062Z,11.30
2022-11-27T06:07:32.110Z,11.80
2022-11-27T06:08:32.038Z,12.00
2022-11-27T06:09:32.042Z,12.50
2022-11-27T06:10:32.020Z,11.80
2022-11-27T06:11:32.003Z,12.30
2022-11-27T06:12:32.001Z,13.60
2022-11-27T06:13:31.985Z,13.10
2022-11-27T06:14:31.998Z,13.10
2022-11-27T06:15:31.961Z,14.10
2022-11-27T06:16:31.997Z,12.80
2022-11-27T06:17:32.003Z,13.80
2022-11-27T06:18:31.927Z,13.00
2022-11-27T06:19:31.943Z,11.20
2022-11-27T06:20:31.909Z,11.60
2022-11-27T06:21:31.902Z,11.80
2022-11-27T06:22:31.879Z,12.50
2022-11-27T06:23:31.889Z,12.10
2022-11-27T06:24:31.886Z,11.60
2022-11-27T06:25:31.873Z,12.40
2022-11-27T06:26:31.839Z,12.40
2022-11-27T06:27:31.844Z,12.20
2022-11-27T06:28:31.867Z,14.10
2022-11-27T06:29:31.848Z,13.20
2022-11-27T06:30:31.799Z,13.20
2022-11-27T06:31:31.875Z,12.40
2022-11-27T06:32:31.772Z,12.20
2022-11-27T06:33:31.761Z,13.40
2022-11-27T06:34:31.793Z,12.60
2022-11-27T06:35:31.758Z,13.20
2022-11-27T06:36:31.747Z,13.30
2022-11-27T06:37:31.727Z,13.50
2022-11-27T06:38:31.727Z,12.10
2022-11-27T06:39:31.716Z,13.10
2022-11-27T06:40:31.689Z,12.80
2022-11-27T06:41:31.681Z,13.30
2022-11-27T06:42:31.688Z,14.20
2022-11-27T06:43:31.668Z,13.10
2022-11-27T06:44:31.680Z,13.60
2022-11-27T06:45:31.689Z,13.60
2022-11-27T06:46:31.637Z,14.70
2022-11-27T06:47:31.639Z,13.20
2022-11-27T06:48:31.613Z,12.40
2022-11-27T06:49:31.617Z,14.00
2022-11-27T06:50:31.581Z,12.60
2022-11-27T06:51:31.574Z,14.00
2022-11-27T06:52:35.804Z,13.20
2022-11-27T06:53:31.557Z,12.90
2022-11-27T06:54:31.568Z,13.10
2022-11-27T06:55:31.523Z,13.50
2022-11-27T06:56:31.516Z,13.30
2022-11-27T06:57:31.512Z,14.00
2022-11-27T06:58:31.515Z,14.10
2022-11-27T06:59:31.507Z,13.40
2022-11-27T07:00:31.475Z,13.20
2022-11-27T07:01:31.567Z,12.90
2022-11-27T07:02:31.545Z,13.10
2022-11-27T07:03:31.442Z,14.00
2022-11-27T07:04:31.457Z,13.30
2022-11-27T07:05:31.442Z,13.90
2022-11-27T07:06:31.405Z,13.20
2022-11-27T07:07:31.447Z,13.00
2022-11-27T07:08:31.405Z,12.60
2022-11-27T07:09:31.391Z,12.40
2022-11-27T07:10:31.369Z,12.50
2022-11-27T07:11:31.357Z,12.80
2022-11-27T07:12:31.345Z,12.70
2022-11-27T07:13:31.335Z,13.50
2022-11-27T07:14:31.347Z,12.30
2022-11-27T07:15:31.314Z,13.40
2022-11-27T07:16:31.362Z,12.50
2022-11-27T07:17:31.292Z,12.30
2022-11-27T07:18:31.275Z,13.20
2022-11-27T07:19:31.278Z,13.10
2022-11-27T07:20:31.262Z,12.60
2022-11-27T07:21:31.265Z,12.70
2022-11-27T07:22:31.235Z,12.70
2022-11-27T07:23:31.237Z,12.20
2022-11-27T07:24:31.240Z,12.10
2022-11-27T07:25:31.193Z,12.70
2022-11-27T07:26:31.194Z,12.80
2022-11-27T07:27:31.210Z,12.30
2022-11-27T07:28:31.174Z,12.70
2022-11-27T07:29:31.191Z,12.60
2022-11-27T07:30:31.142Z,11.80
2022-11-27T07:31:31.249Z,12.10
2022-11-27T07:32:31.130Z,13.30
2022-11-27T07:33:31.152Z,13.10
2022-11-27T07:34:31.135Z,13.00
2022-11-27T07:35:31.092Z,13.00
2022-11-27T07:36:31.099Z,12.10
2022-11-27T07:37:31.081Z,12.70
2022-11-27T07:38:31.068Z,13.20
2022-11-27T07:40:00.200Z,12.90
2022-11-27T07:40:31.046Z,12.30
2022-11-27T07:41:34.088Z,13.40
2022-11-27T07:42:38.076Z,12.10
2022-11-27T07:43:31.031Z,12.60
2022-11-27T07:44:31.019Z,12.70
2022-11-27T07:45:31.028Z,12.30
2022-11-27T07:46:30.974Z,13.70
2022-11-27T07:47:30.962Z,13.30
2022-11-27T07:48:30.954Z,12.40
2022-11-27T07:49:30.977Z,13.20
2022-11-27T07:50:30.943Z,13.40
2022-11-27T07:51:30.922Z,13.30
2022-11-27T07:52:30.914Z,13.30
2022-11-27T07:53:30.933Z,13.60
2022-11-27T07:54:30.902Z,13.60
2022-11-27T07:55:30.894Z,12.40
2022-11-27T07:56:30.880Z,13.20
2022-11-27T07:57:30.854Z,13.90
2022-11-27T07:58:30.849Z,11.60
2022-11-27T07:59:30.856Z,11.60
2022-11-27T08:00:30.832Z,12.40
2022-11-27T08:01:30.905Z,12.80
2022-11-27T08:02:30.807Z,14.20
2022-11-27T08:03:31.537Z,12.80
2022-11-27T08:04:30.841Z,12.80
2022-11-27T08:05:30.779Z,12.90
2022-11-27T08:06:30.758Z,12.70
2022-11-27T08:07:30.793Z,12.40
2022-11-27T08:08:30.747Z,12.80
2022-11-27T08:09:30.745Z,13.20
2022-11-27T08:10:30.718Z,12.60
2022-11-27T08:11:30.702Z,12.00
2022-11-27T08:12:30.702Z,13.10
2022-11-27T08:13:30.687Z,13.50
2022-11-27T08:14:30.692Z,12.40
2022-11-27T08:15:30.664Z,12.90
2022-11-27T08:16:30.729Z,12.80
2022-11-27T08:17:30.667Z,12.00
2022-11-27T08:18:30.622Z,12.20
2022-11-27T08:19:30.637Z,12.10
2022-11-27T08:20:30.618Z,12.40
2022-11-27T08:21:30.600Z,12.70
2022-11-27T08:22:30.584Z,13.30
2022-11-27T08:23:30.599Z,12.50
2022-11-27T08:24:30.578Z,12.50
2022-11-27T08:25:30.557Z,12.20
2022-11-27T08:26:30.567Z,12.00
2022-11-27T08:27:30.537Z,13.00
2022-11-27T08:28:30.540Z,12.50
2022-11-27T08:29:33.928Z,13.00
2022-11-27T08:30:30.499Z,11.80
2022-11-27T08:31:30.583Z,11.50
2022-11-27T08:32:30.490Z,12.30
2022-11-27T08:33:30.464Z,12.40
2022-11-27T08:34:30.510Z,12.00
2022-11-27T08:35:30.445Z,12.60
2022-11-27T08:36:30.429Z,11.80
2022-11-27T08:37:30.423Z,11.50
2022-11-27T08:38:30.408Z,11.60
2022-11-27T08:39:30.417Z,12.20
2022-11-27T08:40:30.394Z,12.20
2022-11-27T08:41:30.386Z,11.20
2022-11-27T08:42:30.368Z,11.90
2022-11-27T08:43:30.373Z,12.20
2022-11-27T08:44:30.377Z,13.50
2022-11-27T08:45:30.421Z,13.30
2022-11-27T08:46:30.339Z,12.90
2022-11-27T08:47:30.317Z,12.20
2022-11-27T08:48:30.304Z,12.30
2022-11-27T08:49:30.320Z,11.30
2022-11-27T08:50:30.290Z,11.10
2022-11-27T08:51:30.268Z,12.30
2022-11-27T08:52:30.294Z,12.20
2022-11-27T08:53:30.256Z,10.70
2022-11-27T08:54:30.260Z,11.30
2022-11-27T08:55:30.226Z,12.10
2022-11-27T08:56:30.224Z,10.80
2022-11-27T08:57:30.206Z,11.20
2022-11-27T08:58:32.864Z,11.70
2022-11-27T08:59:30.202Z,11.60
2022-11-27T09:00:30.184Z,10.60
2022-11-27T09:01:30.240Z,10.80
2022-11-27T09:02:30.161Z,11.10
2022-11-27T09:03:30.164Z,11.40
2022-11-27T09:04:30.238Z,11.30
2022-11-27T09:05:30.131Z,11.20
2022-11-27T09:06:30.105Z,10.80
2022-11-27T09:07:30.161Z,11.10
2022-11-27T09:08:30.086Z,11.10
2022-11-27T09:09:30.093Z,10.80
2022-11-27T09:10:30.082Z,10.70
2022-11-27T09:11:30.083Z,11.30
2022-11-27T09:12:30.039Z,11.60
2022-11-27T09:13:30.045Z,10.00
2022-11-27T09:14:30.036Z,9.80
2022-11-27T09:15:30.005Z,9.50
2022-11-27T09:16:30.179Z,10.40
2022-11-27T09:17:29.993Z,11.10
2022-11-27T09:18:29.993Z,9.30
2022-11-27T09:19:29.997Z,10.80
2022-11-27T09:20:29.975Z,11.00
2022-11-27T09:21:29.966Z,10.10
2022-11-27T09:22:29.933Z,8.90
2022-11-27T09:23:29.922Z,10.20
2022-11-27T09:24:29.936Z,10.10
2022-11-27T09:25:29.898Z,10.10
2022-11-27T09:26:29.896Z,9.50
2022-11-27T09:27:29.878Z,9.70
2022-11-27T09:28:31.850Z,8.80
2022-11-27T09:29:29.885Z,9.80
2022-11-27T09:30:29.848Z,9.40
2022-11-27T09:31:29.877Z,9.30
2022-11-27T09:32:29.823Z,9.70
2022-11-27T09:33:29.818Z,9.70
2022-11-27T09:34:34.593Z,8.90
2022-11-27T09:35:29.834Z,8.30
2022-11-27T09:36:29.796Z,9.50
2022-11-27T09:37:29.775Z,8.50
2022-11-27T09:38:29.768Z,9.00
2022-11-27T09:39:29.781Z,8.20
2022-11-27T09:40:29.741Z,8.40
2022-11-27T09:41:29.724Z,8.60
2022-11-27T09:42:32.137Z,7.90
2022-11-27T09:43:29.727Z,8.90
2022-11-27T09:44:29.718Z,9.10
2022-11-27T09:45:29.737Z,8.90
2022-11-27T09:46:29.682Z,9.10
2022-11-27T09:47:29.685Z,8.80
2022-11-27T09:48:29.671Z,8.90
2022-11-27T09:49:29.678Z,9.70
2022-11-27T09:50:29.640Z,8.60
2022-11-27T09:51:29.620Z,8.20
2022-11-27T09:52:29.612Z,8.20
2022-11-27T09:53:29.629Z,8.40
2022-11-27T09:54:29.611Z,8.20
2022-11-27T09:55:29.610Z,8.00
2022-11-27T09:56:29.571Z,8.30
2022-11-27T09:57:29.565Z,9.10
2022-11-27T09:58:29.570Z,8.30
2022-11-27T09:59:29.541Z,8.10
2022-11-27T10:00:29.552Z,7.80
2022-11-27T10:01:36.526Z,8.20
2022-11-27T10:02:29.679Z,8.50
2022-11-27T10:03:29.535Z,9.20
2022-11-27T10:04:39.848Z,8.30
2022-11-27T10:05:29.498Z,8.90
2022-11-27T10:06:29.477Z,7.90
2022-11-27T10:07:29.472Z,8.00
2022-11-27T10:08:29.445Z,7.90
2022-11-27T10:09:29.420Z,7.80
2022-11-27T10:10:29.452Z,7.60
2022-11-27T10:11:29.409Z,8.10
2022-11-27T10:12:29.442Z,8.00
2022-11-27T10:13:29.383Z,7.40
2022-11-27T10:14:29.383Z,7.70
2022-11-27T10:15:29.379Z,7.40
2022-11-27T10:16:29.420Z,7.60
2022-11-27T10:17:29.341Z,7.10
2022-11-27T10:18:29.330Z,7.50
2022-11-27T10:19:29.321Z,7.50
2022-11-27T10:20:29.337Z,7.20
2022-11-27T10:21:29.306Z,7.50
2022-11-27T10:22:29.289Z,6.40
2022-11-27T10:23:29.271Z,6.80
2022-11-27T10:24:29.273Z,7.10
2022-11-27T10:25:29.269Z,7.20
2022-11-27T10:26:29.242Z,7.10
2022-11-27T10:27:29.262Z,7.30
2022-11-27T10:28:29.219Z,7.10
2022-11-27T10:29:29.215Z,6.90
2022-11-27T10:30:29.215Z,7.70
2022-11-27T10:31:29.223Z,7.60
2022-11-27T10:32:59.180Z,7.10
2022-11-27T10:33:29.180Z,7.20
2022-11-27T10:34:29.149Z,6.90
2022-11-27T10:35:29.189Z,6.70
2022-11-27T10:36:29.151Z,6.70
2022-11-27T10:37:29.121Z,6.50
2022-11-27T10:38:29.130Z,6.40
2022-11-27T10:39:29.120Z,6.80
2022-11-27T10:40:29.115Z,6.80
2022-11-27T10:41:48.192Z,6.40
2022-11-27T10:42:29.079Z,6.50
2022-11-27T10:43:29.179Z,6.50
2022-11-27T10:44:29.052Z,6.40
2022-11-27T10:45:29.154Z,6.50
2022-11-27T10:46:29.066Z,5.90
2022-11-27T10:47:33.517Z,6.60
2022-11-27T10:48:29.032Z,5.90
2022-11-27T10:49:28.998Z,5.90
2022-11-27T10:50:28.996Z,5.60
2022-11-27T10:51:28.969Z,5.70
2022-11-27T10:52:28.953Z,5.10
2022-11-27T10:53:28.952Z,5.50
2022-11-27T10:54:28.954Z,5.30
2022-11-27T10:55:28.949Z,5.80
2022-11-27T10:56:28.934Z,5.70
2022-11-27T10:57:28.905Z,4.90
2022-11-27T10:58:28.904Z,6.20
2022-11-27T10:59:33.172Z,5.50
2022-11-27T11:00:28.905Z,5.90
2022-11-27T11:01:28.889Z,6.00
2022-11-27T11:02:28.922Z,5.80
2022-11-27T11:03:28.841Z,5.50
2022-11-27T11:04:37.900Z,5.40
2022-11-27T11:05:45.097Z,6.00
2022-11-27T11:06:28.824Z,5.80
2022-11-27T11:07:28.818Z,5.50
2022-11-27T11:08:28.793Z,5.70
2022-11-27T11:09:28.788Z,5.30
2022-11-27T11:10:28.786Z,5.80
2022-11-27T11:11:28.756Z,5.70
2022-11-27T11:12:28.907Z,5.30
2022-11-27T11:13:28.747Z,5.60
2022-11-27T11:14:28.724Z,5.30
2022-11-27T11:15:28.729Z,5.80
2022-11-27T11:16:34.513Z,5.60
2022-11-27T11:17:28.868Z,5.60
2022-11-27T11:18:28.687Z,5.70
2022-11-27T11:19:28.665Z,6.10
2022-11-27T11:20:28.670Z,5.50
2022-11-27T11:21:28.648Z,5.70
2022-11-27T11:22:28.624Z,5.80
2022-11-27T11:23:28.627Z,5.20
2022-11-27T11:24:28.612Z,5.20
2022-11-27T11:25:28.617Z,5.50
2022-11-27T11:26:28.593Z,5.50
2022-11-27T11:27:28.577Z,5.00
2022-11-27T11:28:28.562Z,5.10
2022-11-27T11:29:28.587Z,5.50
2022-11-27T11:30:28.577Z,5.30
2022-11-27T11:31:28.575Z,5.00
2022-11-27T11:32:28.525Z,5.40
2022-11-27T11:33:28.513Z,4.70
2022-11-27T11:34:28.502Z,5.30
2022-11-27T11:35:28.510Z,5.10
2022-11-27T11:36:28.488Z,5.40
2022-11-27T11:37:28.484Z,5.50
2022-11-27T11:38:28.473Z,4.90
2022-11-27T11:39:28.452Z,5.20
2022-11-27T11:40:28.458Z,4.90
2022-11-27T11:41:28.422Z,4.80
2022-11-27T11:42:28.406Z,4.60
2022-11-27T11:43:28.410Z,4.70
2022-11-27T11:44:28.400Z,4.70
2022-11-27T11:45:32.330Z,4.80
2022-11-27T11:46:28.501Z,5.20
2022-11-27T11:47:28.389Z,5.30
2022-11-27T11:48:28.361Z,5.30
2022-11-27T11:49:28.333Z,4.90
2022-11-27T11:50:28.345Z,5.00
2022-11-27T11:51:29.525Z,5.00
2022-11-27T11:52:28.334Z,4.80
2022-11-27T11:53:28.302Z,4.30
2022-11-27T11:54:28.286Z,5.20
2022-11-27T11:55:28.301Z,4.90
2022-11-27T11:56:28.259Z,5.30
2022-11-27T11:57:28.251Z,4.40
2022-11-27T11:58:28.241Z,4.60
2022-11-27T11:59:28.241Z,5.00
2022-11-27T12:00:31.598Z,4.90
2022-11-27T12:01:28.206Z,4.30
2022-11-27T12:02:28.238Z,4.40
2022-11-27T12:03:28.188Z,4.50
2022-11-27T12:04:28.214Z,4.90
2022-11-27T12:05:28.196Z,4.80
2022-11-27T12:06:28.148Z,4.80
2022-11-27T12:07:28.222Z,4.90
2022-11-27T12:08:28.132Z,4.90
2022-11-27T12:09:28.123Z,4.80
2022-11-27T12:10:28.136Z,5.20
2022-11-27T12:11:28.123Z,4.50
2022-11-27T12:12:28.098Z,4.80
2022-11-27T12:13:33.024Z,4.80
2022-11-27T12:14:28.071Z,4.60
2022-11-27T12:15:28.069Z,4.50
2022-11-27T12:16:28.080Z,4.80
2022-11-27T12:17:28.035Z,4.20
2022-11-27T12:18:28.009Z,4.10
2022-11-27T12:19:28.019Z,4.20
2022-11-27T12:20:28.020Z,4.50
2022-11-27T12:21:27.991Z,4.50
2022-11-27T12:22:27.985Z,4.90
2022-11-27T12:23:27.966Z,4.50
2022-11-27T12:24:27.962Z,4.80
2022-11-27T12:25:27.958Z,4.80
2022-11-27T12:26:27.934Z,4.70
2022-11-27T12:27:27.928Z,4.30
2022-11-27T12:28:27.916Z,5.10
2022-11-27T12:29:27.899Z,4.10
2022-11-27T12:30:27.912Z,4.80
2022-11-27T12:31:27.925Z,4.50
2022-11-27T12:32:27.875Z,4.10
2022-11-27T12:33:27.871Z,4.40
2022-11-27T12:34:27.858Z,4.90
2022-11-27T12:35:27.854Z,4.50
2022-11-27T12:36:27.823Z,5.20
2022-11-27T12:37:27.819Z,4.70
2022-11-27T12:38:27.795Z,4.60
2022-11-27T12:39:27.805Z,4.70
2022-11-27T12:40:27.793Z,4.40
2022-11-27T12:41:27.767Z,4.70
2022-11-27T12:42:27.756Z,4.70
2022-11-27T12:43:27.754Z,4.60
2022-11-27T12:44:27.742Z,4.90
2022-11-27T12:45:27.804Z,4.90
2022-11-27T12:46:27.762Z,4.40
2022-11-27T12:47:27.709Z,4.90
2022-11-27T12:48:27.702Z,4.20
2022-11-27T12:49:27.684Z,4.80
2022-11-27T12:50:27.686Z,4.30
2022-11-27T12:51:27.660Z,5.10
2022-11-27T12:52:27.651Z,4.80
2022-11-27T12:53:27.633Z,5.20
2022-11-27T12:54:27.640Z,4.00
2022-11-27T12:55:27.637Z,4.60
2022-11-27T12:56:27.599Z,4.90
2022-11-27T12:57:27.585Z,4.40
2022-11-27T12:58:27.608Z,4.50
2022-11-27T12:59:27.583Z,4.20
2022-11-27T13:00:27.598Z,4.40
2022-11-27T13:01:27.684Z,4.60
2022-11-27T13:02:27.610Z,4.50
2022-11-27T13:03:27.526Z,4.10
2022-11-27T13:04:27.516Z,4.50
2022-11-27T13:05:27.526Z,4.50
2022-11-27T13:06:27.492Z,4.60
2022-11-27T13:07:27.563Z,5.00
2022-11-27T13:08:27.477Z,4.30
2022-11-27T13:09:27.467Z,4.80
2022-11-27T13:10:27.461Z,4.80